sensor_id;sensor_type;location;lat;lon;timestamp;temperature;humidity
22635;DHT22;11484;50.858;4.384;2023-02-15T00:01:43;9.30;99.90
22635;DHT22;11484;50.858;4.384;2023-02-15T00:04:11;9.30;99.90
22635;DHT22;11484;50.858;4.384;2023-02-15T00:06:37;9.30;99.90
22635;DHT22;11484;50.858;4.384;2023-02-15T00:09:03;9.30;99.90
22635;DHT22;11484;50.858;4.384;2023-02-15T00:11:29;9.30;99.90
22635;DHT22;11484;50.858;4.384;2023-02-15T00:14:16;9.30;99.90
22635;DHT22;11484;50.858;4.384;2023-02-15T00:16:43;9.30;99.90
22635;DHT22;11484;50.858;4.384;2023-02-15T00:19:10;9.30;99.90
22635;DHT22;11484;50.858;4.384;2023-02-15T00:21:37;9.30;99.90
22635;DHT22;11484;50.858;4.384;2023-02-15T00:24:05;9.20;99.90
22635;DHT22;11484;50.858;4.384;2023-02-15T00:26:31;9.20;99.90
22635;DHT22;11484;50.858;4.384;2023-02-15T00:28:57;9.20;99.90
22635;DHT22;11484;50.858;4.384;2023-02-15T00:31:30;9.30;99.90
22635;DHT22;11484;50.858;4.384;2023-02-15T00:34:16;9.30;99.90
22635;DHT22;11484;50.858;4.384;2023-02-15T00:36:42;9.30;99.90
22635;DHT22;11484;50.858;4.384;2023-02-15T00:39:09;9.30;99.90
22635;DHT22;11484;50.858;4.384;2023-02-15T00:41:35;9.30;99.90
22635;DHT22;11484;50.858;4.384;2023-02-15T00:44:01;9.20;99.90
22635;DHT22;11484;50.858;4.384;2023-02-15T00:46:27;9.20;99.90
22635;DHT22;11484;50.858;4.384;2023-02-15T00:48:53;9.20;99.90
22635;DHT22;11484;50.858;4.384;2023-02-15T00:51:19;9.20;99.90
22635;DHT22;11484;50.858;4.384;2023-02-15T00:53:46;9.20;99.90
22635;DHT22;11484;50.858;4.384;2023-02-15T00:56:12;9.20;99.90
22635;DHT22;11484;50.858;4.384;2023-02-15T00:58:38;9.10;99.90
22635;DHT22;11484;50.858;4.384;2023-02-15T01:01:08;9.20;99.90
22635;DHT22;11484;50.858;4.384;2023-02-15T01:03:35;9.20;99.90
22635;DHT22;11484;50.858;4.384;2023-02-15T01:06:01;9.20;99.90
22635;DHT22;11484;50.858;4.384;2023-02-15T01:08:27;9.10;99.90
22635;DHT22;11484;50.858;4.384;2023-02-15T01:10:52;9.10;99.90
22635;DHT22;11484;50.858;4.384;2023-02-15T01:13:18;9.20;99.90
22635;DHT22;11484;50.858;4.384;2023-02-15T01:15:44;9.20;99.90
22635;DHT22;11484;50.858;4.384;2023-02-15T01:18:11;9.10;99.90
22635;DHT22;11484;50.858;4.384;2023-02-15T01:20:39;9.10;99.90
22635;DHT22;11484;50.858;4.384;2023-02-15T01:23:07;9.10;99.90
22635;DHT22;11484;50.858;4.384;2023-02-15T01:25:34;9.10;99.90
22635;DHT22;11484;50.858;4.384;2023-02-15T01:28:00;9.10;99.90
22635;DHT22;11484;50.858;4.384;2023-02-15T01:30:26;9.10;99.90
22635;DHT22;11484;50.858;4.384;2023-02-15T01:32:51;9.10;99.90
22635;DHT22;11484;50.858;4.384;2023-02-15T01:35:17;9.00;99.90
22635;DHT22;11484;50.858;4.384;2023-02-15T01:37:43;8.90;99.90
22635;DHT22;11484;50.858;4.384;2023-02-15T01:40:14;8.90;99.90
22635;DHT22;11484;50.858;4.384;2023-02-15T01:42:40;8.90;99.90
22635;DHT22;11484;50.858;4.384;2023-02-15T01:48:25;8.70;99.90
22635;DHT22;11484;50.858;4.384;2023-02-15T01:50:54;8.70;99.90
22635;DHT22;11484;50.858;4.384;2023-02-15T01:53:24;8.70;99.90
22635;DHT22;11484;50.858;4.384;2023-02-15T01:55:59;8.70;99.90
22635;DHT22;11484;50.858;4.384;2023-02-15T01:58:28;8.70;99.90
22635;DHT22;11484;50.858;4.384;2023-02-15T02:00:57;8.70;99.90
22635;DHT22;11484;50.858;4.384;2023-02-15T02:03:56;8.70;99.90
22635;DHT22;11484;50.858;4.384;2023-02-15T02:06:17;8.60;99.90
22635;DHT22;11484;50.858;4.384;2023-02-15T02:08:43;8.50;99.90
22635;DHT22;11484;50.858;4.384;2023-02-15T02:11:13;8.50;99.90
22635;DHT22;11484;50.858;4.384;2023-02-15T02:13:43;8.40;99.90
22635;DHT22;11484;50.858;4.384;2023-02-15T02:25:26;8.30;99.90
22635;DHT22;11484;50.858;4.384;2023-02-15T02:36:51;8.20;99.90
22635;DHT22;11484;50.858;4.384;2023-02-15T02:39:46;8.20;99.90
22635;DHT22;11484;50.858;4.384;2023-02-15T02:42:30;8.10;99.90
22635;DHT22;11484;50.858;4.384;2023-02-15T02:45:04;8.10;99.90
22635;DHT22;11484;50.858;4.384;2023-02-15T02:47:32;8.10;99.90
22635;DHT22;11484;50.858;4.384;2023-02-15T02:50:05;8.00;99.90
22635;DHT22;11484;50.858;4.384;2023-02-15T02:55:23;8.00;99.90
22635;DHT22;11484;50.858;4.384;2023-02-15T02:58:01;8.00;99.90
22635;DHT22;11484;50.858;4.384;2023-02-15T03:00:35;8.00;99.90
22635;DHT22;11484;50.858;4.384;2023-02-15T03:03:26;8.00;99.90
22635;DHT22;11484;50.858;4.384;2023-02-15T03:05:57;7.90;99.90
22635;DHT22;11484;50.858;4.384;2023-02-15T03:08:26;7.90;99.90
22635;DHT22;11484;50.858;4.384;2023-02-15T03:10:57;7.90;99.90
22635;DHT22;11484;50.858;4.384;2023-02-15T03:13:24;7.90;99.90
22635;DHT22;11484;50.858;4.384;2023-02-15T03:15:51;7.90;99.90
22635;DHT22;11484;50.858;4.384;2023-02-15T03:18:44;7.90;99.90
22635;DHT22;11484;50.858;4.384;2023-02-15T03:21:20;7.90;99.90
22635;DHT22;11484;50.858;4.384;2023-02-15T03:23:59;7.80;99.90
22635;DHT22;11484;50.858;4.384;2023-02-15T03:26:26;7.80;99.90
22635;DHT22;11484;50.858;4.384;2023-02-15T03:28:55;7.80;99.90
22635;DHT22;11484;50.858;4.384;2023-02-15T03:31:24;7.80;99.90
22635;DHT22;11484;50.858;4.384;2023-02-15T03:34:02;7.80;99.90
22635;DHT22;11484;50.858;4.384;2023-02-15T03:39:47;7.70;99.90
22635;DHT22;11484;50.858;4.384;2023-02-15T03:42:33;7.80;99.90
22635;DHT22;11484;50.858;4.384;2023-02-15T03:45:13;7.70;99.90
22635;DHT22;11484;50.858;4.384;2023-02-15T03:47:44;7.70;99.90
22635;DHT22;11484;50.858;4.384;2023-02-15T03:50:15;7.80;99.90
22635;DHT22;11484;50.858;4.384;2023-02-15T03:53:03;7.70;99.90
22635;DHT22;11484;50.858;4.384;2023-02-15T03:55:30;7.70;99.90
22635;DHT22;11484;50.858;4.384;2023-02-15T03:57:56;7.70;99.90
22635;DHT22;11484;50.858;4.384;2023-02-15T04:00:52;7.70;99.90
22635;DHT22;11484;50.858;4.384;2023-02-15T04:03:51;7.60;99.90
22635;DHT22;11484;50.858;4.384;2023-02-15T04:06:19;7.60;99.90
22635;DHT22;11484;50.858;4.384;2023-02-15T04:08:44;7.60;99.90
22635;DHT22;11484;50.858;4.384;2023-02-15T04:11:28;7.60;99.90
22635;DHT22;11484;50.858;4.384;2023-02-15T04:13:54;7.60;99.90
22635;DHT22;11484;50.858;4.384;2023-02-15T04:16:22;7.60;99.90
22635;DHT22;11484;50.858;4.384;2023-02-15T04:18:48;7.50;99.90
22635;DHT22;11484;50.858;4.384;2023-02-15T04:21:32;7.60;99.90
22635;DHT22;11484;50.858;4.384;2023-02-15T04:24:16;7.60;99.90
22635;DHT22;11484;50.858;4.384;2023-02-15T04:27:02;7.70;99.90
22635;DHT22;11484;50.858;4.384;2023-02-15T04:29:28;7.70;99.90
22635;DHT22;11484;50.858;4.384;2023-02-15T04:31:58;7.60;99.90
22635;DHT22;11484;50.858;4.384;2023-02-15T04:34:24;7.60;99.90
22635;DHT22;11484;50.858;4.384;2023-02-15T04:36:50;7.60;99.90
22635;DHT22;11484;50.858;4.384;2023-02-15T04:39:17;7.60;99.90
22635;DHT22;11484;50.858;4.384;2023-02-15T04:41:43;7.50;99.90
22635;DHT22;11484;50.858;4.384;2023-02-15T04:44:10;7.50;99.90
22635;DHT22;11484;50.858;4.384;2023-02-15T04:46:36;7.50;99.90
22635;DHT22;11484;50.858;4.384;2023-02-15T04:49:02;7.50;99.90
22635;DHT22;11484;50.858;4.384;2023-02-15T04:51:28;7.50;99.90
22635;DHT22;11484;50.858;4.384;2023-02-15T04:53:54;7.50;99.90
22635;DHT22;11484;50.858;4.384;2023-02-15T04:56:20;7.50;99.90
22635;DHT22;11484;50.858;4.384;2023-02-15T04:58:46;7.40;99.90
22635;DHT22;11484;50.858;4.384;2023-02-15T05:01:12;7.50;99.90
22635;DHT22;11484;50.858;4.384;2023-02-15T05:03:37;7.40;99.90
22635;DHT22;11484;50.858;4.384;2023-02-15T05:06:04;7.40;99.90
22635;DHT22;11484;50.858;4.384;2023-02-15T05:08:30;7.40;99.90
22635;DHT22;11484;50.858;4.384;2023-02-15T05:10:56;7.40;99.90
22635;DHT22;11484;50.858;4.384;2023-02-15T05:13:23;7.40;99.90
22635;DHT22;11484;50.858;4.384;2023-02-15T05:15:50;7.40;99.90
22635;DHT22;11484;50.858;4.384;2023-02-15T05:18:18;7.40;99.90
22635;DHT22;11484;50.858;4.384;2023-02-15T05:20:44;7.40;99.90
22635;DHT22;11484;50.858;4.384;2023-02-15T05:23:10;7.50;99.90
22635;DHT22;11484;50.858;4.384;2023-02-15T05:25:36;7.50;99.90
22635;DHT22;11484;50.858;4.384;2023-02-15T05:28:20;7.50;99.90
22635;DHT22;11484;50.858;4.384;2023-02-15T05:30:52;7.50;99.90
22635;DHT22;11484;50.858;4.384;2023-02-15T05:33:22;7.50;99.90
22635;DHT22;11484;50.858;4.384;2023-02-15T05:35:48;7.40;99.90
22635;DHT22;11484;50.858;4.384;2023-02-15T05:38:13;7.40;99.90
22635;DHT22;11484;50.858;4.384;2023-02-15T05:40:39;7.40;99.90
22635;DHT22;11484;50.858;4.384;2023-02-15T05:43:04;7.40;99.90
22635;DHT22;11484;50.858;4.384;2023-02-15T05:45:30;7.40;99.90
22635;DHT22;11484;50.858;4.384;2023-02-15T05:47:56;7.40;99.90
22635;DHT22;11484;50.858;4.384;2023-02-15T05:50:23;7.40;99.90
22635;DHT22;11484;50.858;4.384;2023-02-15T05:52:49;7.40;99.90
22635;DHT22;11484;50.858;4.384;2023-02-15T05:55:15;7.30;99.90
22635;DHT22;11484;50.858;4.384;2023-02-15T05:57:41;7.40;99.90
22635;DHT22;11484;50.858;4.384;2023-02-15T06:00:07;7.40;99.90
22635;DHT22;11484;50.858;4.384;2023-02-15T06:02:35;7.30;99.90
22635;DHT22;11484;50.858;4.384;2023-02-15T06:05:02;7.40;99.90
22635;DHT22;11484;50.858;4.384;2023-02-15T06:07:28;7.40;99.90
22635;DHT22;11484;50.858;4.384;2023-02-15T06:09:54;7.30;99.90
22635;DHT22;11484;50.858;4.384;2023-02-15T06:12:20;7.30;99.90
22635;DHT22;11484;50.858;4.384;2023-02-15T06:14:45;7.30;99.90
22635;DHT22;11484;50.858;4.384;2023-02-15T06:17:11;7.30;99.90
22635;DHT22;11484;50.858;4.384;2023-02-15T06:19:36;7.20;99.90
22635;DHT22;11484;50.858;4.384;2023-02-15T06:22:02;7.20;99.90
22635;DHT22;11484;50.858;4.384;2023-02-15T06:24:28;7.10;99.90
22635;DHT22;11484;50.858;4.384;2023-02-15T06:26:54;7.10;99.90
22635;DHT22;11484;50.858;4.384;2023-02-15T06:29:19;7.10;99.90
22635;DHT22;11484;50.858;4.384;2023-02-15T06:31:45;7.10;99.90
22635;DHT22;11484;50.858;4.384;2023-02-15T06:34:11;7.10;99.90
22635;DHT22;11484;50.858;4.384;2023-02-15T06:36:36;7.00;99.90
22635;DHT22;11484;50.858;4.384;2023-02-15T06:39:03;7.00;99.90
22635;DHT22;11484;50.858;4.384;2023-02-15T06:41:29;7.00;99.90
22635;DHT22;11484;50.858;4.384;2023-02-15T06:43:55;7.00;99.90
22635;DHT22;11484;50.858;4.384;2023-02-15T06:46:21;6.90;99.90
22635;DHT22;11484;50.858;4.384;2023-02-15T06:48:46;6.90;99.90
22635;DHT22;11484;50.858;4.384;2023-02-15T06:51:18;6.90;99.90
22635;DHT22;11484;50.858;4.384;2023-02-15T06:53:44;6.90;99.90
22635;DHT22;11484;50.858;4.384;2023-02-15T06:56:10;6.90;99.90
22635;DHT22;11484;50.858;4.384;2023-02-15T06:58:37;6.90;99.90
22635;DHT22;11484;50.858;4.384;2023-02-15T07:01:04;6.90;99.90
22635;DHT22;11484;50.858;4.384;2023-02-15T07:03:30;6.90;99.90
22635;DHT22;11484;50.858;4.384;2023-02-15T07:05:57;6.90;99.90
22635;DHT22;11484;50.858;4.384;2023-02-15T07:08:24;6.90;99.90
22635;DHT22;11484;50.858;4.384;2023-02-15T07:10:51;7.00;99.90
22635;DHT22;11484;50.858;4.384;2023-02-15T07:13:17;7.00;99.90
22635;DHT22;11484;50.858;4.384;2023-02-15T07:15:44;7.00;99.90
22635;DHT22;11484;50.858;4.384;2023-02-15T07:18:10;7.10;99.90
22635;DHT22;11484;50.858;4.384;2023-02-15T07:20:37;7.10;99.90
22635;DHT22;11484;50.858;4.384;2023-02-15T07:23:04;7.20;99.90
22635;DHT22;11484;50.858;4.384;2023-02-15T07:25:30;7.30;99.90
22635;DHT22;11484;50.858;4.384;2023-02-15T07:28:01;7.40;99.90
22635;DHT22;11484;50.858;4.384;2023-02-15T07:30:27;7.50;99.90
22635;DHT22;11484;50.858;4.384;2023-02-15T07:32:57;7.50;99.90
22635;DHT22;11484;50.858;4.384;2023-02-15T07:35:54;7.60;99.90
22635;DHT22;11484;50.858;4.384;2023-02-15T07:38:21;7.60;99.90
22635;DHT22;11484;50.858;4.384;2023-02-15T07:40:46;7.80;99.90
22635;DHT22;11484;50.858;4.384;2023-02-15T07:43:12;7.90;99.90
22635;DHT22;11484;50.858;4.384;2023-02-15T07:45:38;8.00;99.90
22635;DHT22;11484;50.858;4.384;2023-02-15T07:48:05;8.10;99.90
22635;DHT22;11484;50.858;4.384;2023-02-15T07:50:31;8.20;99.90
22635;DHT22;11484;50.858;4.384;2023-02-15T07:52:57;8.20;99.90
22635;DHT22;11484;50.858;4.384;2023-02-15T07:55:23;8.30;99.90
22635;DHT22;11484;50.858;4.384;2023-02-15T07:57:51;8.40;99.90
22635;DHT22;11484;50.858;4.384;2023-02-15T08:00:18;8.40;99.90
22635;DHT22;11484;50.858;4.384;2023-02-15T08:02:54;8.50;99.90
22635;DHT22;11484;50.858;4.384;2023-02-15T08:05:40;8.60;99.90
22635;DHT22;11484;50.858;4.384;2023-02-15T08:08:07;8.70;99.90
22635;DHT22;11484;50.858;4.384;2023-02-15T08:10:35;8.70;99.90
22635;DHT22;11484;50.858;4.384;2023-02-15T08:13:23;8.80;99.90
22635;DHT22;11484;50.858;4.384;2023-02-15T08:15:50;9.00;99.90
22635;DHT22;11484;50.858;4.384;2023-02-15T08:18:16;9.20;99.90
22635;DHT22;11484;50.858;4.384;2023-02-15T08:20:41;9.40;99.90
22635;DHT22;11484;50.858;4.384;2023-02-15T08:23:07;9.40;99.90
22635;DHT22;11484;50.858;4.384;2023-02-15T08:25:33;9.50;99.90
22635;DHT22;11484;50.858;4.384;2023-02-15T08:27:58;9.50;99.90
22635;DHT22;11484;50.858;4.384;2023-02-15T08:30:24;9.60;99.90
22635;DHT22;11484;50.858;4.384;2023-02-15T08:32:50;9.70;99.90
22635;DHT22;11484;50.858;4.384;2023-02-15T08:35:15;9.80;99.90
22635;DHT22;11484;50.858;4.384;2023-02-15T08:37:44;9.80;99.90
22635;DHT22;11484;50.858;4.384;2023-02-15T08:40:11;10.00;99.90
22635;DHT22;11484;50.858;4.384;2023-02-15T08:42:38;10.10;99.90
22635;DHT22;11484;50.858;4.384;2023-02-15T08:45:04;10.10;99.90
22635;DHT22;11484;50.858;4.384;2023-02-15T08:47:30;10.00;99.90
22635;DHT22;11484;50.858;4.384;2023-02-15T08:49:55;10.00;99.90
22635;DHT22;11484;50.858;4.384;2023-02-15T08:52:21;10.10;99.90
22635;DHT22;11484;50.858;4.384;2023-02-15T08:54:47;10.20;99.90
22635;DHT22;11484;50.858;4.384;2023-02-15T08:57:13;10.30;99.90
22635;DHT22;11484;50.858;4.384;2023-02-15T08:59:38;10.40;99.90
22635;DHT22;11484;50.858;4.384;2023-02-15T09:02:04;10.60;99.90
22635;DHT22;11484;50.858;4.384;2023-02-15T09:04:29;10.90;99.90
22635;DHT22;11484;50.858;4.384;2023-02-15T09:06:56;11.10;99.90
22635;DHT22;11484;50.858;4.384;2023-02-15T09:09:22;11.20;99.90
22635;DHT22;11484;50.858;4.384;2023-02-15T09:11:49;11.20;99.90
22635;DHT22;11484;50.858;4.384;2023-02-15T09:14:18;11.10;99.90
22635;DHT22;11484;50.858;4.384;2023-02-15T09:16:46;11.10;99.90
22635;DHT22;11484;50.858;4.384;2023-02-15T09:19:14;11.00;99.90
22635;DHT22;11484;50.858;4.384;2023-02-15T09:21:39;11.00;99.90
22635;DHT22;11484;50.858;4.384;2023-02-15T09:24:07;11.00;99.90
22635;DHT22;11484;50.858;4.384;2023-02-15T09:26:35;11.00;99.90
22635;DHT22;11484;50.858;4.384;2023-02-15T09:29:02;11.10;99.90
22635;DHT22;11484;50.858;4.384;2023-02-15T09:31:49;11.20;99.90
22635;DHT22;11484;50.858;4.384;2023-02-15T09:34:17;11.30;99.90
22635;DHT22;11484;50.858;4.384;2023-02-15T09:36:44;11.30;99.90
22635;DHT22;11484;50.858;4.384;2023-02-15T09:39:17;11.30;99.90
22635;DHT22;11484;50.858;4.384;2023-02-15T09:41:58;11.30;99.90
22635;DHT22;11484;50.858;4.384;2023-02-15T09:49:54;11.60;99.90
22635;DHT22;11484;50.858;4.384;2023-02-15T09:55:45;12.00;99.90
22635;DHT22;11484;50.858;4.384;2023-02-15T10:03:53;12.20;99.90
22635;DHT22;11484;50.858;4.384;2023-02-15T10:17:19;12.50;99.90
22635;DHT22;11484;50.858;4.384;2023-02-15T10:31:34;12.60;99.90
22635;DHT22;11484;50.858;4.384;2023-02-15T10:34:16;12.60;99.90
22635;DHT22;11484;50.858;4.384;2023-02-15T10:45:20;12.60;99.90
22635;DHT22;11484;50.858;4.384;2023-02-15T10:48:42;12.60;99.80
22635;DHT22;11484;50.858;4.384;2023-02-15T10:51:07;12.40;99.70
22635;DHT22;11484;50.858;4.384;2023-02-15T10:53:52;12.40;99.90
22635;DHT22;11484;50.858;4.384;2023-02-15T11:05:59;12.40;99.90
22635;DHT22;11484;50.858;4.384;2023-02-15T11:08:31;12.50;99.90
22635;DHT22;11484;50.858;4.384;2023-02-15T11:11:03;12.60;99.90
22635;DHT22;11484;50.858;4.384;2023-02-15T11:13:38;12.70;99.90
22635;DHT22;11484;50.858;4.384;2023-02-15T11:16:20;12.60;99.90
22635;DHT22;11484;50.858;4.384;2023-02-15T11:19:04;12.40;99.90
22635;DHT22;11484;50.858;4.384;2023-02-15T11:21:36;12.40;99.90
22635;DHT22;11484;50.858;4.384;2023-02-15T11:24:11;12.50;99.90
22635;DHT22;11484;50.858;4.384;2023-02-15T11:26:46;12.50;99.90
22635;DHT22;11484;50.858;4.384;2023-02-15T11:32:24;12.80;99.90
22635;DHT22;11484;50.858;4.384;2023-02-15T11:37:48;13.00;99.90
22635;DHT22;11484;50.858;4.384;2023-02-15T11:40:33;13.00;99.90
22635;DHT22;11484;50.858;4.384;2023-02-15T11:43:26;12.90;99.90
22635;DHT22;11484;50.858;4.384;2023-02-15T11:45:49;13.00;99.90
22635;DHT22;11484;50.858;4.384;2023-02-15T11:48:15;13.10;99.90
22635;DHT22;11484;50.858;4.384;2023-02-15T11:50:42;13.10;99.90
22635;DHT22;11484;50.858;4.384;2023-02-15T11:53:21;13.20;99.90
22635;DHT22;11484;50.858;4.384;2023-02-15T11:55:50;13.20;99.90
22635;DHT22;11484;50.858;4.384;2023-02-15T12:01:41;13.30;99.90
22635;DHT22;11484;50.858;4.384;2023-02-15T12:03:52;13.40;99.90
22635;DHT22;11484;50.858;4.384;2023-02-15T12:06:27;13.60;99.90
22635;DHT22;11484;50.858;4.384;2023-02-15T12:09:13;13.70;99.90
22635;DHT22;11484;50.858;4.384;2023-02-15T12:11:42;13.80;99.60
22635;DHT22;11484;50.858;4.384;2023-02-15T12:14:10;14.00;99.40
22635;DHT22;11484;50.858;4.384;2023-02-15T12:16:46;14.10;99.20
22635;DHT22;11484;50.858;4.384;2023-02-15T12:19:26;14.10;99.00
22635;DHT22;11484;50.858;4.384;2023-02-15T12:21:53;14.10;99.10
22635;DHT22;11484;50.858;4.384;2023-02-15T12:24:23;14.00;99.20
22635;DHT22;11484;50.858;4.384;2023-02-15T12:26:59;14.00;99.50
22635;DHT22;11484;50.858;4.384;2023-02-15T12:29:29;14.10;99.40
22635;DHT22;11484;50.858;4.384;2023-02-15T12:31:57;14.10;99.50
22635;DHT22;11484;50.858;4.384;2023-02-15T12:34:41;14.20;99.30
22635;DHT22;11484;50.858;4.384;2023-02-15T12:37:23;14.20;99.10
22635;DHT22;11484;50.858;4.384;2023-02-15T12:39:55;14.40;99.00
22635;DHT22;11484;50.858;4.384;2023-02-15T12:42:21;14.30;98.80
22635;DHT22;11484;50.858;4.384;2023-02-15T12:45:24;14.10;98.90
22635;DHT22;11484;50.858;4.384;2023-02-15T12:48:14;13.90;99.30
22635;DHT22;11484;50.858;4.384;2023-02-15T12:50:50;13.90;99.70
22635;DHT22;11484;50.858;4.384;2023-02-15T12:53:34;14.10;99.60
22635;DHT22;11484;50.858;4.384;2023-02-15T12:56:02;14.10;99.50
22635;DHT22;11484;50.858;4.384;2023-02-15T12:58:33;14.10;99.50
22635;DHT22;11484;50.858;4.384;2023-02-15T13:03:34;14.30;99.30
22635;DHT22;11484;50.858;4.384;2023-02-15T13:06:02;14.20;99.20
22635;DHT22;11484;50.858;4.384;2023-02-15T13:08:45;14.20;99.30
22635;DHT22;11484;50.858;4.384;2023-02-15T13:11:12;14.10;99.30
22635;DHT22;11484;50.858;4.384;2023-02-15T13:14:00;14.20;99.30
22635;DHT22;11484;50.858;4.384;2023-02-15T13:16:37;14.20;99.20
22635;DHT22;11484;50.858;4.384;2023-02-15T13:19:17;14.20;99.30
22635;DHT22;11484;50.858;4.384;2023-02-15T13:21:46;14.20;99.30
22635;DHT22;11484;50.858;4.384;2023-02-15T13:24:29;14.20;99.50
22635;DHT22;11484;50.858;4.384;2023-02-15T13:26:57;14.30;99.40
22635;DHT22;11484;50.858;4.384;2023-02-15T13:29:33;14.30;99.40
22635;DHT22;11484;50.858;4.384;2023-02-15T13:32:15;14.30;99.50
22635;DHT22;11484;50.858;4.384;2023-02-15T13:34:45;14.30;99.40
22635;DHT22;11484;50.858;4.384;2023-02-15T13:37:32;14.30;99.40
22635;DHT22;11484;50.858;4.384;2023-02-15T13:42:56;14.30;99.50
22635;DHT22;11484;50.858;4.384;2023-02-15T13:48:28;14.30;99.50
22635;DHT22;11484;50.858;4.384;2023-02-15T13:51:12;14.30;99.60
22635;DHT22;11484;50.858;4.384;2023-02-15T14:08:47;14.20;99.50
22635;DHT22;11484;50.858;4.384;2023-02-15T14:19:58;14.10;99.90
22635;DHT22;11484;50.858;4.384;2023-02-15T14:30:26;14.00;99.90
22635;DHT22;11484;50.858;4.384;2023-02-15T14:33:07;14.10;99.90
22635;DHT22;11484;50.858;4.384;2023-02-15T14:35:34;14.00;99.90
22635;DHT22;11484;50.858;4.384;2023-02-15T14:41:10;14.10;99.90
22635;DHT22;11484;50.858;4.384;2023-02-15T14:47:10;14.10;99.90
22635;DHT22;11484;50.858;4.384;2023-02-15T14:49:39;13.90;99.90
22635;DHT22;11484;50.858;4.384;2023-02-15T14:52:07;14.00;99.90
22635;DHT22;11484;50.858;4.384;2023-02-15T15:02:18;14.10;99.90
22635;DHT22;11484;50.858;4.384;2023-02-15T15:07:27;14.00;99.90
22635;DHT22;11484;50.858;4.384;2023-02-15T15:10:03;13.80;99.90
22635;DHT22;11484;50.858;4.384;2023-02-15T15:12:54;13.70;99.90
22635;DHT22;11484;50.858;4.384;2023-02-15T15:17:55;13.90;99.90
22635;DHT22;11484;50.858;4.384;2023-02-15T15:25:51;14.40;99.90
22635;DHT22;11484;50.858;4.384;2023-02-15T15:33:42;14.30;99.90
22635;DHT22;11484;50.858;4.384;2023-02-15T15:36:38;14.20;99.90
22635;DHT22;11484;50.858;4.384;2023-02-15T15:41:48;14.20;99.90
22635;DHT22;11484;50.858;4.384;2023-02-15T15:50:19;14.20;99.90
22635;DHT22;11484;50.858;4.384;2023-02-15T15:52:48;14.00;99.90
22635;DHT22;11484;50.858;4.384;2023-02-15T15:55:18;14.00;99.90
22635;DHT22;11484;50.858;4.384;2023-02-15T15:57:46;14.00;99.90
22635;DHT22;11484;50.858;4.384;2023-02-15T16:00:42;14.00;99.90
22635;DHT22;11484;50.858;4.384;2023-02-15T16:03:30;14.00;99.90
22635;DHT22;11484;50.858;4.384;2023-02-15T16:05:56;14.00;99.90
22635;DHT22;11484;50.858;4.384;2023-02-15T16:10:51;13.70;99.90
22635;DHT22;11484;50.858;4.384;2023-02-15T16:13:17;13.60;99.90
22635;DHT22;11484;50.858;4.384;2023-02-15T16:15:49;13.60;99.90
22635;DHT22;11484;50.858;4.384;2023-02-15T16:18:19;13.80;99.90
22635;DHT22;11484;50.858;4.384;2023-02-15T16:20:54;13.80;99.90
22635;DHT22;11484;50.858;4.384;2023-02-15T16:26:36;14.20;99.90
22635;DHT22;11484;50.858;4.384;2023-02-15T16:29:14;14.30;99.90
22635;DHT22;11484;50.858;4.384;2023-02-15T16:31:40;14.10;99.90
22635;DHT22;11484;50.858;4.384;2023-02-15T16:34:09;13.70;99.90
22635;DHT22;11484;50.858;4.384;2023-02-15T16:36:41;13.50;99.90
22635;DHT22;11484;50.858;4.384;2023-02-15T16:39:11;13.30;99.90
22635;DHT22;11484;50.858;4.384;2023-02-15T16:41:42;13.30;99.90
22635;DHT22;11484;50.858;4.384;2023-02-15T16:44:19;13.10;99.90
22635;DHT22;11484;50.858;4.384;2023-02-15T16:46:49;13.10;99.90
22635;DHT22;11484;50.858;4.384;2023-02-15T16:49:20;13.10;99.90
22635;DHT22;11484;50.858;4.384;2023-02-15T16:52:02;13.00;99.90
22635;DHT22;11484;50.858;4.384;2023-02-15T16:54:29;12.80;99.90
22635;DHT22;11484;50.858;4.384;2023-02-15T16:56:57;12.70;99.90
22635;DHT22;11484;50.858;4.384;2023-02-15T17:01:55;12.60;99.90
22635;DHT22;11484;50.858;4.384;2023-02-15T17:07:14;12.50;99.90
22635;DHT22;11484;50.858;4.384;2023-02-15T17:09:55;12.50;99.90
22635;DHT22;11484;50.858;4.384;2023-02-15T17:15:34;12.30;99.90
22635;DHT22;11484;50.858;4.384;2023-02-15T17:18:16;12.20;99.90
22635;DHT22;11484;50.858;4.384;2023-02-15T17:20:44;12.20;99.90
22635;DHT22;11484;50.858;4.384;2023-02-15T17:23:32;12.20;99.90
22635;DHT22;11484;50.858;4.384;2023-02-15T17:26:01;12.20;99.90
22635;DHT22;11484;50.858;4.384;2023-02-15T17:28:31;12.10;99.90
22635;DHT22;11484;50.858;4.384;2023-02-15T17:30:57;12.10;99.90
22635;DHT22;11484;50.858;4.384;2023-02-15T17:33:35;12.10;99.90
22635;DHT22;11484;50.858;4.384;2023-02-15T17:36:14;12.10;99.90
22635;DHT22;11484;50.858;4.384;2023-02-15T17:41:33;12.00;99.90
22635;DHT22;11484;50.858;4.384;2023-02-15T17:44:03;11.90;99.90
22635;DHT22;11484;50.858;4.384;2023-02-15T17:46:35;11.90;99.90
22635;DHT22;11484;50.858;4.384;2023-02-15T17:49:02;12.00;99.90
22635;DHT22;11484;50.858;4.384;2023-02-15T17:51:28;11.90;99.90
22635;DHT22;11484;50.858;4.384;2023-02-15T17:53:53;12.00;99.90
22635;DHT22;11484;50.858;4.384;2023-02-15T17:56:38;12.00;99.90
22635;DHT22;11484;50.858;4.384;2023-02-15T17:59:04;12.00;99.90
22635;DHT22;11484;50.858;4.384;2023-02-15T18:01:34;12.00;99.90
22635;DHT22;11484;50.858;4.384;2023-02-15T18:04:20;12.00;99.90
22635;DHT22;11484;50.858;4.384;2023-02-15T18:07:08;11.90;99.90
22635;DHT22;11484;50.858;4.384;2023-02-15T18:09:53;11.80;99.90
22635;DHT22;11484;50.858;4.384;2023-02-15T18:12:37;11.70;99.90
22635;DHT22;11484;50.858;4.384;2023-02-15T18:15:04;11.70;99.90
22635;DHT22;11484;50.858;4.384;2023-02-15T18:17:37;11.70;99.90
22635;DHT22;11484;50.858;4.384;2023-02-15T18:20:10;11.70;99.90
22635;DHT22;11484;50.858;4.384;2023-02-15T18:22:40;11.70;99.90
22635;DHT22;11484;50.858;4.384;2023-02-15T18:25:14;11.70;99.90
22635;DHT22;11484;50.858;4.384;2023-02-15T18:27:41;11.70;99.90
22635;DHT22;11484;50.858;4.384;2023-02-15T18:30:07;11.60;99.90
22635;DHT22;11484;50.858;4.384;2023-02-15T18:32:37;11.60;99.90
22635;DHT22;11484;50.858;4.384;2023-02-15T18:35:04;11.60;99.90
22635;DHT22;11484;50.858;4.384;2023-02-15T18:37:31;11.60;99.90
22635;DHT22;11484;50.858;4.384;2023-02-15T18:39:58;11.70;99.90
22635;DHT22;11484;50.858;4.384;2023-02-15T18:42:32;11.60;99.90
22635;DHT22;11484;50.858;4.384;2023-02-15T18:45:12;11.60;99.90
22635;DHT22;11484;50.858;4.384;2023-02-15T18:47:38;11.70;99.90
22635;DHT22;11484;50.858;4.384;2023-02-15T18:50:06;11.60;99.90
22635;DHT22;11484;50.858;4.384;2023-02-15T18:52:35;11.60;99.90
22635;DHT22;11484;50.858;4.384;2023-02-15T18:55:04;11.60;99.90
22635;DHT22;11484;50.858;4.384;2023-02-15T18:57:38;11.60;99.90
22635;DHT22;11484;50.858;4.384;2023-02-15T19:00:06;11.60;99.90
22635;DHT22;11484;50.858;4.384;2023-02-15T19:02:31;11.70;99.90
22635;DHT22;11484;50.858;4.384;2023-02-15T19:04:57;11.60;99.90
22635;DHT22;11484;50.858;4.384;2023-02-15T19:07:25;11.60;99.90
22635;DHT22;11484;50.858;4.384;2023-02-15T19:09:55;11.50;99.90